sensor_id;sensor_type;location;lat;lon;timestamp;pressure;altitude;pressure_sealevel;temperature;humidity
47815;BME280;33579;50.058;18.130;2023-02-12T00:00:56;100589.13;;;3.72;100.00
47815;BME280;33579;50.058;18.130;2023-02-12T00:01:57;100593.53;;;3.70;100.00
47815;BME280;33579;50.058;18.130;2023-02-12T00:02:59;100590.97;;;3.68;100.00
47815;BME280;33579;50.058;18.130;2023-02-12T00:04:00;100597.09;;;3.67;100.00
47815;BME280;33579;50.058;18.130;2023-02-12T00:05:02;100588.50;;;3.65;100.00
47815;BME280;33579;50.058;18.130;2023-02-12T00:06:05;100592.75;;;3.68;100.00
47815;BME280;33579;50.058;18.130;2023-02-12T00:07:06;100588.28;;;3.71;100.00
47815;BME280;33579;50.058;18.130;2023-02-12T00:08:08;100596.03;;;3.73;100.00
47815;BME280;33579;50.058;18.130;2023-02-12T00:09:10;100588.34;;;3.70;100.00
47815;BME280;33579;50.058;18.130;2023-02-12T00:10:12;100599.56;;;3.70;100.00
47815;BME280;33579;50.058;18.130;2023-02-12T00:11:15;100607.38;;;3.70;100.00
47815;BME280;33579;50.058;18.130;2023-02-12T00:12:17;100611.59;;;3.74;100.00
47815;BME280;33579;50.058;18.130;2023-02-12T00:13:19;100603.66;;;3.77;100.00
47815;BME280;33579;50.058;18.130;2023-02-12T00:14:20;100603.72;;;3.76;100.00
47815;BME280;33579;50.058;18.130;2023-02-12T00:15:22;100606.28;;;3.77;100.00
47815;BME280;33579;50.058;18.130;2023-02-12T00:16:26;100606.94;;;3.83;100.00
47815;BME280;33579;50.058;18.130;2023-02-12T00:17:28;100616.53;;;3.82;100.00
47815;BME280;33579;50.058;18.130;2023-02-12T00:18:30;100614.75;;;3.83;100.00
47815;BME280;33579;50.058;18.130;2023-02-12T00:19:31;100612.28;;;3.79;100.00
47815;BME280;33579;50.058;18.130;2023-02-12T00:20:33;100622.69;;;3.79;100.00
47815;BME280;33579;50.058;18.130;2023-02-12T00:21:35;100622.75;;;3.78;100.00
47815;BME280;33579;50.058;18.130;2023-02-12T00:22:36;100618.34;;;3.80;100.00
47815;BME280;33579;50.058;18.130;2023-02-12T00:23:39;100623.44;;;3.83;100.00
47815;BME280;33579;50.058;18.130;2023-02-12T00:24:41;100624.38;;;3.80;100.00
47815;BME280;33579;50.058;18.130;2023-02-12T00:25:43;100621.69;;;3.84;100.00
47815;BME280;33579;50.058;18.130;2023-02-12T00:26:44;100619.97;;;3.83;100.00
47815;BME280;33579;50.058;18.130;2023-02-12T00:27:47;100619.25;;;3.79;100.00
47815;BME280;33579;50.058;18.130;2023-02-12T00:28:49;100614.88;;;3.79;100.00
47815;BME280;33579;50.058;18.130;2023-02-12T00:29:51;100620.03;;;3.81;100.00
47815;BME280;33579;50.058;18.130;2023-02-12T00:30:52;100619.28;;;3.77;100.00
47815;BME280;33579;50.058;18.130;2023-02-12T00:31:54;100619.97;;;3.83;100.00
47815;BME280;33579;50.058;18.130;2023-02-12T00:32:55;100620.94;;;3.80;100.00
47815;BME280;33579;50.058;18.130;2023-02-12T00:33:58;100616.47;;;3.84;100.00
47815;BME280;33579;50.058;18.130;2023-02-12T00:35:00;100621.69;;;3.84;100.00
47815;BME280;33579;50.058;18.130;2023-02-12T00:36:02;100622.41;;;3.87;100.00
47815;BME280;33579;50.058;18.130;2023-02-12T00:37:04;100620.66;;;3.88;100.00
47815;BME280;33579;50.058;18.130;2023-02-12T00:38:05;100615.34;;;3.91;100.00
47815;BME280;33579;50.058;18.130;2023-02-12T00:39:09;100613.63;;;3.90;100.00
47815;BME280;33579;50.058;18.130;2023-02-12T00:40:11;100616.13;;;3.93;100.00
47815;BME280;33579;50.058;18.130;2023-02-12T00:41:12;100610.13;;;3.91;100.00
47815;BME280;33579;50.058;18.130;2023-02-12T00:42:14;100613.63;;;3.90;100.00
47815;BME280;33579;50.058;18.130;2023-02-12T00:43:16;100622.25;;;3.92;100.00
47815;BME280;33579;50.058;18.130;2023-02-12T00:44:17;100619.75;;;3.89;100.00
47815;BME280;33579;50.058;18.130;2023-02-12T00:45:19;100620.53;;;3.91;100.00
47815;BME280;33579;50.058;18.130;2023-02-12T00:46:21;100621.34;;;3.93;100.00
47815;BME280;33579;50.058;18.130;2023-02-12T00:47:23;100619.63;;;3.92;100.00
47815;BME280;33579;50.058;18.130;2023-02-12T00:48:24;100623.09;;;3.92;100.00
47815;BME280;33579;50.058;18.130;2023-02-12T00:49:27;100618.63;;;3.96;100.00
47815;BME280;33579;50.058;18.130;2023-02-12T00:50:28;100622.88;;;3.99;100.00
47815;BME280;33579;50.058;18.130;2023-02-12T00:51:34;100616.81;;;3.98;100.00
47815;BME280;33579;50.058;18.130;2023-02-12T00:52:36;100619.59;;;3.93;100.00
47815;BME280;33579;50.058;18.130;2023-02-12T00:53:37;100617.03;;;3.92;100.00
47815;BME280;33579;50.058;18.130;2023-02-12T00:54:40;100617.81;;;3.94;100.00
47815;BME280;33579;50.058;18.130;2023-02-12T00:55:42;100622.94;;;3.97;100.00
47815;BME280;33579;50.058;18.130;2023-02-12T00:56:44;100619.63;;;3.92;100.00
47815;BME280;33579;50.058;18.130;2023-02-12T00:57:45;100617.09;;;3.90;100.00
47815;BME280;33579;50.058;18.130;2023-02-12T00:58:47;100611.78;;;3.93;100.00
47815;BME280;33579;50.058;18.130;2023-02-12T00:59:49;100611.00;;;3.91;100.00
47815;BME280;33579;50.058;18.130;2023-02-12T01:00:51;100609.34;;;3.89;100.00
47815;BME280;33579;50.058;18.130;2023-02-12T01:01:54;100609.50;;;3.84;100.00
47815;BME280;33579;50.058;18.130;2023-02-12T01:02:56;100622.53;;;3.84;100.00
47815;BME280;33579;50.058;18.130;2023-02-12T01:03:58;100628.69;;;3.82;100.00
47815;BME280;33579;50.058;18.130;2023-02-12T01:05:00;100626.19;;;3.78;100.00
47815;BME280;33579;50.058;18.130;2023-02-12T01:06:02;100623.53;;;3.80;100.00
47815;BME280;33579;50.058;18.130;2023-02-12T01:07:03;100623.72;;;3.75;100.00
47815;BME280;33579;50.058;18.130;2023-02-12T01:08:05;100622.00;;;3.74;100.00
47815;BME280;33579;50.058;18.130;2023-02-12T01:09:06;100623.72;;;3.75;100.00
47815;BME280;33579;50.058;18.130;2023-02-12T01:10:08;100628.78;;;3.78;100.00
47815;BME280;33579;50.058;18.130;2023-02-12T01:11:11;100627.88;;;3.79;100.00
47815;BME280;33579;50.058;18.130;2023-02-12T01:12:13;100633.97;;;3.80;100.00
47815;BME280;33579;50.058;18.130;2023-02-12T01:13:15;100623.72;;;3.75;100.00
47815;BME280;33579;50.058;18.130;2023-02-12T01:14:16;100623.75;;;3.74;100.00
47815;BME280;33579;50.058;18.130;2023-02-12T01:15:18;100629.88;;;3.73;100.00
47815;BME280;33579;50.058;18.130;2023-02-12T01:16:22;100630.50;;;3.79;100.00
47815;BME280;33579;50.058;18.130;2023-02-12T01:17:24;100630.59;;;3.76;100.00
47815;BME280;33579;50.058;18.130;2023-02-12T01:18:26;100632.31;;;3.77;100.00
47815;BME280;33579;50.058;18.130;2023-02-12T01:19:27;100621.22;;;3.72;100.00
47815;BME280;33579;50.058;18.130;2023-02-12T01:20:29;100628.16;;;3.72;100.00
47815;BME280;33579;50.058;18.130;2023-02-12T01:21:33;100626.44;;;3.72;100.00
47815;BME280;33579;50.058;18.130;2023-02-12T01:22:35;100626.47;;;3.71;100.00
47815;BME280;33579;50.058;18.130;2023-02-12T01:23:38;100630.66;;;3.75;100.00
47815;BME280;33579;50.058;18.130;2023-02-12T01:24:40;100631.47;;;3.77;100.00
47815;BME280;33579;50.058;18.130;2023-02-12T01:25:41;100627.22;;;3.74;100.00
47815;BME280;33579;50.058;18.130;2023-02-12T01:26:43;100629.06;;;3.71;100.00
47815;BME280;33579;50.058;18.130;2023-02-12T01:27:45;100628.13;;;3.73;100.00
47815;BME280;33579;50.058;18.130;2023-02-12T01:28:55;100638.38;;;3.78;100.00
47815;BME280;33579;50.058;18.130;2023-02-12T01:29:57;100630.66;;;3.75;100.00
47815;BME280;33579;50.058;18.130;2023-02-12T01:30:58;100632.31;;;3.77;100.00
47815;BME280;33579;50.058;18.130;2023-02-12T01:32:00;100635.66;;;3.81;100.00
47815;BME280;33579;50.058;18.130;2023-02-12T01:33:02;100635.66;;;3.81;100.00
47815;BME280;33579;50.058;18.130;2023-02-12T01:34:05;100640.78;;;3.83;100.00
47815;BME280;33579;50.058;18.130;2023-02-12T01:35:08;100641.66;;;3.83;100.00
47815;BME280;33579;50.058;18.130;2023-02-12T01:36:10;100646.81;;;3.85;100.00
47815;BME280;33579;50.058;18.130;2023-02-12T01:37:11;100655.41;;;3.87;100.00
47815;BME280;33579;50.058;18.130;2023-02-12T01:38:13;100657.94;;;3.88;100.00
47815;BME280;33579;50.058;18.130;2023-02-12T01:39:15;100648.50;;;3.86;100.00
47815;BME280;33579;50.058;18.130;2023-02-12T01:40:17;100658.03;;;3.87;100.00
47815;BME280;33579;50.058;18.130;2023-02-12T01:41:25;100651.03;;;3.87;100.00
47815;BME280;33579;50.058;18.130;2023-02-12T01:42:27;100643.41;;;3.83;100.00
47815;BME280;33579;50.058;18.130;2023-02-12T01:43:28;100648.59;;;3.83;100.00
47815;BME280;33579;50.058;18.130;2023-02-12T01:44:32;100649.34;;;3.86;100.00
47815;BME280;33579;50.058;18.130;2023-02-12T01:45:47;100656.16;;;3.90;100.00
47815;BME280;33579;50.058;18.130;2023-02-12T01:46:55;100656.97;;;3.92;100.00
47815;BME280;33579;50.058;18.130;2023-02-12T01:47:59;100651.00;;;3.89;100.00
47815;BME280;33579;50.058;18.130;2023-02-12T01:49:04;100665.59;;;3.93;100.00
47815;BME280;33579;50.058;18.130;2023-02-12T01:50:10;100663.78;;;3.95;100.00
47815;BME280;33579;50.058;18.130;2023-02-12T01:51:18;100662.19;;;3.91;100.00
47815;BME280;33579;50.058;18.130;2023-02-12T01:52:30;100660.50;;;3.90;100.00
47815;BME280;33579;50.058;18.130;2023-02-12T01:53:43;100659.59;;;3.91;100.00
47815;BME280;33579;50.058;18.130;2023-02-12T01:54:48;100651.91;;;3.88;100.00
47815;BME280;33579;50.058;18.130;2023-02-12T01:55:54;100652.94;;;3.84;100.00
47815;BME280;33579;50.058;18.130;2023-02-12T01:56:59;100662.47;;;3.83;100.00
47815;BME280;33579;50.058;18.130;2023-02-12T01:58:03;100658.84;;;3.87;100.00
47815;BME280;33579;50.058;18.130;2023-02-12T01:59:05;100661.63;;;3.83;100.00
47815;BME280;33579;50.058;18.130;2023-02-12T02:00:10;100664.94;;;3.88;100.00
47815;BME280;33579;50.058;18.130;2023-02-12T02:01:20;100672.00;;;3.84;100.00
47815;BME280;33579;50.058;18.130;2023-02-12T02:02:23;100666.81;;;3.83;100.00
47815;BME280;33579;50.058;18.130;2023-02-12T02:03:25;100655.34;;;3.88;100.00
47815;BME280;33579;50.058;18.130;2023-02-12T02:04:31;100651.16;;;3.84;100.00
47815;BME280;33579;50.058;18.130;2023-02-12T02:05:55;100650.38;;;3.82;100.00
47815;BME280;33579;50.058;18.130;2023-02-12T02:07:04;100652.19;;;3.80;100.00
47815;BME280;33579;50.058;18.130;2023-02-12T02:08:07;100658.28;;;3.79;100.00
47815;BME280;33579;50.058;18.130;2023-02-12T02:09:10;100659.88;;;3.83;100.00
47815;BME280;33579;50.058;18.130;2023-02-12T02:10:12;100659.19;;;3.78;100.00
47815;BME280;33579;50.058;18.130;2023-02-12T02:11:13;100658.22;;;3.80;100.00
47815;BME280;33579;50.058;18.130;2023-02-12T02:12:15;100653.09;;;3.79;100.00
47815;BME280;33579;50.058;18.130;2023-02-12T02:13:17;100655.69;;;3.79;100.00
47815;BME280;33579;50.058;18.130;2023-02-12T02:14:19;100660.00;;;3.80;100.00
47815;BME280;33579;50.058;18.130;2023-02-12T02:15:20;100670.41;;;3.80;100.00
47815;BME280;33579;50.058;18.130;2023-02-12T02:16:25;100673.97;;;3.77;100.00
47815;BME280;33579;50.058;18.130;2023-02-12T02:17:37;100673.75;;;3.84;100.00
47815;BME280;33579;50.058;18.130;2023-02-12T02:23:29;100665.13;;;3.82;100.00
47815;BME280;33579;50.058;18.130;2023-02-12T02:33:00;100676.41;;;3.82;100.00
47815;BME280;33579;50.058;18.130;2023-02-12T02:34:12;100678.84;;;3.87;100.00
47815;BME280;33579;50.058;18.130;2023-02-12T02:35:43;100678.78;;;3.88;100.00
47815;BME280;33579;50.058;18.130;2023-02-12T02:38:47;100687.41;;;3.90;100.00
47815;BME280;33579;50.058;18.130;2023-02-12T02:39:58;100680.50;;;3.89;100.00
47815;BME280;33579;50.058;18.130;2023-02-12T02:42:26;100684.88;;;3.87;100.00
47815;BME280;33579;50.058;18.130;2023-02-12T02:43:51;100676.13;;;3.90;100.00
47815;BME280;33579;50.058;18.130;2023-02-12T02:46:10;100676.00;;;3.93;100.00
47815;BME280;33579;50.058;18.130;2023-02-12T02:47:13;100678.69;;;3.91;100.00
47815;BME280;33579;50.058;18.130;2023-02-12T02:48:23;100679.47;;;3.93;100.00
47815;BME280;33579;50.058;18.130;2023-02-12T02:49:32;100693.59;;;3.86;100.00
47815;BME280;33579;50.058;18.130;2023-02-12T02:50:39;100685.88;;;3.85;100.00
47815;BME280;33579;50.058;18.130;2023-02-12T02:51:45;100686.53;;;3.90;100.00
47815;BME280;33579;50.058;18.130;2023-02-12T02:52:55;100694.47;;;3.87;100.00
47815;BME280;33579;50.058;18.130;2023-02-12T02:54:13;100691.28;;;3.78;100.00
47815;BME280;33579;50.058;18.130;2023-02-12T02:55:18;100685.03;;;3.83;100.00
47815;BME280;33579;50.058;18.130;2023-02-12T02:56:23;100691.91;;;3.85;100.00
47815;BME280;33579;50.058;18.130;2023-02-12T02:57:33;100694.50;;;3.85;100.00
47815;BME280;33579;50.058;18.130;2023-02-12T02:58:57;100691.97;;;3.84;100.00
47815;BME280;33579;50.058;18.130;2023-02-12T03:00:33;100702.97;;;3.92;100.00
47815;BME280;33579;50.058;18.130;2023-02-12T03:01:43;100697.88;;;3.89;100.00
47815;BME280;33579;50.058;18.130;2023-02-12T03:02:57;100706.59;;;3.88;100.00
47815;BME280;33579;50.058;18.130;2023-02-12T03:04:14;100711.69;;;3.91;100.00
47815;BME280;33579;50.058;18.130;2023-02-12T03:05:25;100705.69;;;3.89;100.00
47815;BME280;33579;50.058;18.130;2023-02-12T03:06:39;100702.31;;;3.85;100.00
47815;BME280;33579;50.058;18.130;2023-02-12T03:08:28;100703.22;;;3.84;100.00
47815;BME280;33579;50.058;18.130;2023-02-12T03:09:31;100706.69;;;3.85;100.00
47815;BME280;33579;50.058;18.130;2023-02-12T03:10:41;100710.09;;;3.87;100.00
47815;BME280;33579;50.058;18.130;2023-02-12T03:11:45;100712.59;;;3.90;100.00
47815;BME280;33579;50.058;18.130;2023-02-12T03:12:54;100710.78;;;3.92;100.00
47815;BME280;33579;50.058;18.130;2023-02-12T03:15:38;100718.66;;;3.90;100.00
47815;BME280;33579;50.058;18.130;2023-02-12T03:17:12;100721.25;;;3.90;100.00
47815;BME280;33579;50.058;18.130;2023-02-12T03:18:25;100723.88;;;3.90;100.00
47815;BME280;33579;50.058;18.130;2023-02-12T03:19:41;100722.06;;;3.92;100.00
47815;BME280;33579;50.058;18.130;2023-02-12T03:20:53;100729.91;;;3.91;100.00
47815;BME280;33579;50.058;18.130;2023-02-12T03:22:03;100728.22;;;3.90;100.00
47815;BME280;33579;50.058;18.130;2023-02-12T03:23:11;100727.41;;;3.88;100.00
47815;BME280;33579;50.058;18.130;2023-02-12T03:24:31;100731.84;;;3.86;100.00
47815;BME280;33579;50.058;18.130;2023-02-12T03:25:49;100733.78;;;3.79;100.00
47815;BME280;33579;50.058;18.130;2023-02-12T03:27:03;100733.69;;;3.82;100.00
47815;BME280;33579;50.058;18.130;2023-02-12T03:28:32;100737.78;;;3.89;100.00
47815;BME280;33579;50.058;18.130;2023-02-12T03:29:34;100743.84;;;3.90;100.00
47815;BME280;33579;50.058;18.130;2023-02-12T03:33:53;100751.50;;;3.94;100.00
47815;BME280;33579;50.058;18.130;2023-02-12T03:36:16;100748.13;;;3.91;100.00
47815;BME280;33579;50.058;18.130;2023-02-12T03:37:30;100756.66;;;3.96;100.00
47815;BME280;33579;50.058;18.130;2023-02-12T03:38:44;100760.88;;;3.99;100.00
47815;BME280;33579;50.058;18.130;2023-02-12T03:40:16;100765.19;;;4.00;100.00
47815;BME280;33579;50.058;18.130;2023-02-12T03:44:13;100770.78;;;3.89;100.00
47815;BME280;33579;50.058;18.130;2023-02-12T03:45:33;100778.44;;;3.93;100.00
47815;BME280;33579;50.058;18.130;2023-02-12T03:46:41;100781.19;;;3.89;100.00
47815;BME280;33579;50.058;18.130;2023-02-12T03:49:30;100783.03;;;3.85;100.00
47815;BME280;33579;50.058;18.130;2023-02-12T03:51:43;100785.75;;;3.82;100.00
47815;BME280;33579;50.058;18.130;2023-02-12T03:52:46;100784.81;;;3.85;100.00
47815;BME280;33579;50.058;18.130;2023-02-12T03:53:50;100785.53;;;3.88;100.00
47815;BME280;33579;50.058;18.130;2023-02-12T03:54:52;100789.88;;;3.89;100.00
47815;BME280;33579;50.058;18.130;2023-02-12T03:55:59;100790.00;;;3.85;100.00
47815;BME280;33579;50.058;18.130;2023-02-12T03:57:07;100797.75;;;3.86;100.00
47815;BME280;33579;50.058;18.130;2023-02-12T03:58:14;100799.59;;;3.83;100.00
47815;BME280;33579;50.058;18.130;2023-02-12T03:59:19;100803.97;;;3.82;100.00
47815;BME280;33579;50.058;18.130;2023-02-12T04:00:23;100807.41;;;3.83;100.00
47815;BME280;33579;50.058;18.130;2023-02-12T04:01:26;100801.25;;;3.85;100.00
47815;BME280;33579;50.058;18.130;2023-02-12T04:02:28;100808.97;;;3.88;100.00
47815;BME280;33579;50.058;18.130;2023-02-12T04:03:29;100806.47;;;3.85;100.00
47815;BME280;33579;50.058;18.130;2023-02-12T04:04:32;100805.53;;;3.88;100.00
47815;BME280;33579;50.058;18.130;2023-02-12T04:05:34;100806.38;;;3.88;100.00
47815;BME280;33579;50.058;18.130;2023-02-12T04:06:36;100806.31;;;3.90;100.00
47815;BME280;33579;50.058;18.130;2023-02-12T04:07:37;100805.53;;;3.88;100.00
47815;BME280;33579;50.058;18.130;2023-02-12T04:08:39;100803.81;;;3.87;100.00
47815;BME280;33579;50.058;18.130;2023-02-12T04:09:40;100802.06;;;3.87;100.00
47815;BME280;33579;50.058;18.130;2023-02-12T04:11:11;100799.53;;;3.86;100.00
47815;BME280;33579;50.058;18.130;2023-02-12T04:12:31;100805.63;;;3.85;100.00
47815;BME280;33579;50.058;18.130;2023-02-12T04:15:19;100809.16;;;3.84;100.00
47815;BME280;33579;50.058;18.130;2023-02-12T04:16:38;100810.88;;;3.83;100.00
47815;BME280;33579;50.058;18.130;2023-02-12T04:18:52;100813.44;;;3.85;100.00
47815;BME280;33579;50.058;18.130;2023-02-12T04:20:15;100809.97;;;3.84;100.00
47815;BME280;33579;50.058;18.130;2023-02-12T04:24:57;100810.91;;;3.82;100.00
47815;BME280;33579;50.058;18.130;2023-02-12T04:25:49;100822.06;;;3.87;100.00
47815;BME280;33579;50.058;18.130;2023-02-12T04:27:19;100823.16;;;3.79;100.00
47815;BME280;33579;50.058;18.130;2023-02-12T04:30:40;100819.63;;;3.80;100.00
47815;BME280;33579;50.058;18.130;2023-02-12T04:31:37;100814.34;;;3.84;100.00
47815;BME280;33579;50.058;18.130;2023-02-12T04:32:55;100824.66;;;3.87;100.00
47815;BME280;33579;50.058;18.130;2023-02-12T04:36:02;100832.59;;;3.84;100.00
47815;BME280;33579;50.058;18.130;2023-02-12T04:38:21;100831.75;;;3.82;100.00
47815;BME280;33579;50.058;18.130;2023-02-12T04:39:27;100831.72;;;3.83;100.00
47815;BME280;33579;50.058;18.130;2023-02-12T04:40:30;100833.38;;;3.86;100.00
47815;BME280;33579;50.058;18.130;2023-02-12T04:41:32;100828.16;;;3.86;100.00
47815;BME280;33579;50.058;18.130;2023-02-12T04:42:44;100834.97;;;3.90;100.00
47815;BME280;33579;50.058;18.130;2023-02-12T04:43:47;100824.59;;;3.88;100.00
47815;BME280;33579;50.058;18.130;2023-02-12T04:44:48;100830.63;;;3.90;100.00
47815;BME280;33579;50.058;18.130;2023-02-12T04:45:50;100831.34;;;3.94;100.00
47815;BME280;33579;50.058;18.130;2023-02-12T04:46:52;100838.25;;;3.95;100.00
47815;BME280;33579;50.058;18.130;2023-02-12T04:47:53;100838.22;;;3.97;100.00
47815;BME280;33579;50.058;18.130;2023-02-12T04:48:57;100829.56;;;3.96;100.00
47815;BME280;33579;50.058;18.130;2023-02-12T04:49:59;100840.97;;;3.92;100.00
47815;BME280;33579;50.058;18.130;2023-02-12T04:51:00;100843.66;;;3.90;100.00
47815;BME280;33579;50.058;18.130;2023-02-12T04:52:02;100844.44;;;3.92;100.00
47815;BME280;33579;50.058;18.130;2023-02-12T04:53:05;100844.38;;;3.94;100.00
47815;BME280;33579;50.058;18.130;2023-02-12T04:54:06;100852.19;;;3.94;100.00
47815;BME280;33579;50.058;18.130;2023-02-12T04:55:08;100850.59;;;3.90;100.00
47815;BME280;33579;50.058;18.130;2023-02-12T04:56:10;100859.25;;;3.90;100.00
47815;BME280;33579;50.058;18.130;2023-02-12T04:57:12;100850.56;;;3.91;100.00
47815;BME280;33579;50.058;18.130;2023-02-12T04:58:14;100852.09;;;3.97;100.00
47815;BME280;33579;50.058;18.130;2023-02-12T04:59:15;100858.03;;;4.01;100.00
47815;BME280;33579;50.058;18.130;2023-02-12T05:00:17;100857.31;;;3.97;100.00
47815;BME280;33579;50.058;18.130;2023-02-12T05:01:19;100864.22;;;3.98;100.00
47815;BME280;33579;50.058;18.130;2023-02-12T05:02:20;100868.38;;;4.04;100.00
47815;BME280;33579;50.058;18.130;2023-02-12T05:03:22;100870.91;;;4.05;100.00
47815;BME280;33579;50.058;18.130;2023-02-12T05:04:23;100866.53;;;4.07;100.00
47815;BME280;33579;50.058;18.130;2023-02-12T05:05:26;100869.03;;;4.11;100.00
47815;BME280;33579;50.058;18.130;2023-02-12T05:06:28;100872.53;;;4.10;100.00
47815;BME280;33579;50.058;18.130;2023-02-12T05:07:29;100871.78;;;4.06;100.00
47815;BME280;33579;50.058;18.130;2023-02-12T05:08:31;100869.31;;;4.01;100.00
47815;BME280;33579;50.058;18.130;2023-02-12T05:09:33;100871.13;;;3.99;100.00
47815;BME280;33579;50.058;18.130;2023-02-12T05:10:34;100872.97;;;3.96;100.00
47815;BME280;33579;50.058;18.130;2023-02-12T05:11:36;100874.88;;;3.90;100.00
47815;BME280;33579;50.058;18.130;2023-02-12T05:12:37;100874.03;;;3.90;100.00
47815;BME280;33579;50.058;18.130;2023-02-12T05:13:39;100877.56;;;3.87;100.00
47815;BME280;33579;50.058;18.130;2023-02-12T05:14:41;100881.78;;;3.91;100.00
47815;BME280;33579;50.058;18.130;2023-02-12T05:15:42;100879.09;;;3.94;100.00
47815;BME280;33579;50.058;18.130;2023-02-12T05:16:44;100883.28;;;3.99;100.00
47815;BME280;33579;50.058;18.130;2023-02-12T05:17:46;100882.34;;;4.01;100.00
47815;BME280;33579;50.058;18.130;2023-02-12T05:18:47;100883.22;;;4.02;100.00
47815;BME280;33579;50.058;18.130;2023-02-12T05:19:49;100877.16;;;4.00;100.00
47815;BME280;33579;50.058;18.130;2023-02-12T05:20:55;100878.97;;;3.98;100.00
47815;BME280;33579;50.058;18.130;2023-02-12T05:21:57;100885.97;;;3.97;100.00
47815;BME280;33579;50.058;18.130;2023-02-12T05:22:59;100891.91;;;4.01;100.00
47815;BME280;33579;50.058;18.130;2023-02-12T05:24:01;100886.53;;;4.05;100.00
47815;BME280;33579;50.058;18.130;2023-02-12T05:25:04;100896.97;;;4.05;100.00
47815;BME280;33579;50.058;18.130;2023-02-12T05:26:18;100897.28;;;3.96;100.00
47815;BME280;33579;50.058;18.130;2023-02-12T05:27:19;100891.16;;;3.97;100.00
47815;BME280;33579;50.058;18.130;2023-02-12T05:28:21;100900.63;;;4.00;100.00
47815;BME280;33579;50.058;18.130;2023-02-12T05:29:23;100903.94;;;4.05;100.00
47815;BME280;33579;50.058;18.130;2023-02-12T05:30:24;100905.69;;;4.04;100.00
47815;BME280;33579;50.058;18.130;2023-02-12T05:31:26;100908.22;;;4.07;100.00
47815;BME280;33579;50.058;18.130;2023-02-12T05:32:28;100915.16;;;4.07;100.00
47815;BME280;33579;50.058;18.130;2023-02-12T05:33:30;100909.06;;;4.06;100.00
47815;BME280;33579;50.058;18.130;2023-02-12T05:34:32;100915.19;;;4.05;100.00
47815;BME280;33579;50.058;18.130;2023-02-12T05:35:34;100910.09;;;4.02;100.00
47815;BME280;33579;50.058;18.130;2023-02-12T05:36:36;100907.47;;;4.02;100.00
47815;BME280;33579;50.058;18.130;2023-02-12T05:37:38;100912.66;;;4.04;100.00
47815;BME280;33579;50.058;18.130;2023-02-12T05:38:40;100919.50;;;4.06;100.00
47815;BME280;33579;50.058;18.130;2023-02-12T05:39:41;100917.00;;;4.03;100.00
47815;BME280;33579;50.058;18.130;2023-02-12T05:40:43;100923.84;;;4.07;100.00
47815;BME280;33579;50.058;18.130;2023-02-12T05:41:45;100919.56;;;4.05;100.00
47815;BME280;33579;50.058;18.130;2023-02-12T05:42:46;100913.50;;;4.04;100.00
47815;BME280;33579;50.058;18.130;2023-02-12T05:43:48;100914.34;;;4.05;100.00
47815;BME280;33579;50.058;18.130;2023-02-12T05:44:50;100916.88;;;4.06;100.00
47815;BME280;33579;50.058;18.130;2023-02-12T05:45:51;100923.22;;;3.99;100.00
47815;BME280;33579;50.058;18.130;2023-02-12T05:46:54;100923.22;;;3.99;100.00
47815;BME280;33579;50.058;18.130;2023-02-12T05:47:55;100916.19;;;4.01;100.00
47815;BME280;33579;50.058;18.130;2023-02-12T05:48:57;100918.81;;;4.01;100.00
47815;BME280;33579;50.058;18.130;2023-02-12T05:49:59;100922.28;;;4.02;100.00
47815;BME280;33579;50.058;18.130;2023-02-12T05:51:05;100924.78;;;4.05;100.00
47815;BME280;33579;50.058;18.130;2023-02-12T05:52:07;100929.97;;;4.05;100.00
47815;BME280;33579;50.058;18.130;2023-02-12T05:53:08;100931.66;;;4.07;100.00
47815;BME280;33579;50.058;18.130;2023-02-12T05:54:10;100937.66;;;4.10;100.00
47815;BME280;33579;50.058;18.130;2023-02-12T05:55:11;100936.00;;;4.07;100.00
47815;BME280;33579;50.058;18.130;2023-02-12T05:56:19;100938.59;;;4.07;100.00
47815;BME280;33579;50.058;18.130;2023-02-12T05:57:21;100937.69;;;4.08;100.00
47815;BME280;33579;50.058;18.130;2023-02-12T05:58:23;100936.03;;;4.05;100.00
47815;BME280;33579;50.058;18.130;2023-02-12T05:59:25;100936.84;;;4.07;100.00
47815;BME280;33579;50.058;18.130;2023-02-12T06:00:26;100942.06;;;4.07;100.00
47815;BME280;33579;50.058;18.130;2023-02-12T06:01:30;100941.25;;;4.05;100.00
47815;BME280;33579;50.058;18.130;2023-02-12T06:02:33;100941.31;;;4.04;100.00
47815;BME280;33579;50.058;18.130;2023-02-12T06:03:35;100942.13;;;4.04;100.00
47815;BME280;33579;50.058;18.130;2023-02-12T06:04:36;100943.94;;;4.02;100.00
47815;BME280;33579;50.058;18.130;2023-02-12T06:05:38;100952.66;;;4.01;100.00
47815;BME280;33579;50.058;18.130;2023-02-12T06:06:40;100956.22;;;3.99;100.00
47815;BME280;33579;50.058;18.130;2023-02-12T06:07:42;100955.31;;;4.00;100.00
47815;BME280;33579;50.058;18.130;2023-02-12T06:08:47;100963.19;;;3.98;100.00
47815;BME280;33579;50.058;18.130;2023-02-12T06:09:48;100958.03;;;3.95;100.00
47815;BME280;33579;50.058;18.130;2023-02-12T06:10:50;100960.97;;;3.86;100.00
47815;BME280;33579;50.058;18.130;2023-02-12T06:11:52;100964.50;;;3.83;100.00
47815;BME280;33579;50.058;18.130;2023-02-12T06:12:55;100960.97;;;3.86;100.00
47815;BME280;33579;50.058;18.130;2023-02-12T06:13:57;100969.47;;;3.91;100.00
47815;BME280;33579;50.058;18.130;2023-02-12T06:14:58;100963.34;;;3.92;100.00
47815;BME280;33579;50.058;18.130;2023-02-12T06:16:00;100958.13;;;3.93;100.00
47815;BME280;33579;50.058;18.130;2023-02-12T06:17:01;100963.22;;;3.97;100.00